»·PEaware :: N2102W KPOC-KSNA

N2102W :: KPOC-KSNA

FLIGHT INFORMATION

Flight Status: Arrived
Operator: Privately registered:
United States
More flights under this callsign
Pilot: Eric G. (5941)
Aircraft: CESSNA 208 CARAVAN
(C208)
More flights by this aircraft type
Origin: KPOC Brackett
United States
Destination: KSNA John Wayne-Orange Co
United States
More flights between these airports :: More routes between these airports
Route: PRADO V16 PDZ PDZ270/013 RNDAL V363 POXKU V8 SLI
File this flight plan on PilotEdge
Remarks: NA
Altitude:
(Current/Filed)
6,000ft
Speed:
(Current/Filed)
185kts
Departed: 10-Sep-20 02:54 PM
Arrived: 10-Sep-20 03:14 PM
Distance/Time
Traveled:
3072nm/0:20
Distance/Time
To Go:
Arrived

Flight Plot

Page will automatically refresh every two minutes.

Flight plan parsing failed; only flown route is shown


Map Options




Map Legend


Flown Route
Filed Route
Departure Airport
Arrival Airport
Navaid (VOR, NDB)
Fix

Horizontal Profiles

Position Reports

Time Latitude Longitude Heading Altitude Ground
Speed
10-Sep-20 14:26 34.089416 -117.775867 182 1009ft 0kts
10-Sep-20 14:27 34.089416 -117.775867 182 1009ft 0kts
10-Sep-20 14:28 34.089416 -117.775867 182 1009ft 0kts
10-Sep-20 14:29 34.089416 -117.775867 182 1009ft 0kts
10-Sep-20 14:30 34.089617 -117.775856 182 1009ft 0kts
10-Sep-20 14:31 34.089617 -117.775856 182 1009ft 0kts
10-Sep-20 14:32 34.089617 -117.775856 182 1009ft 0kts
10-Sep-20 14:33 34.089617 -117.775856 182 1009ft 0kts
10-Sep-20 14:34 34.089617 -117.775856 182 1009ft 0kts
10-Sep-20 14:35 34.089617 -117.775856 182 1009ft 0kts
10-Sep-20 14:36 34.089617 -117.775856 182 1009ft 0kts
10-Sep-20 14:37 34.089617 -117.775856 182 1009ft 0kts
10-Sep-20 14:38 34.089617 -117.775856 182 1009ft 0kts
10-Sep-20 14:39 34.089617 -117.775856 182 1009ft 0kts
10-Sep-20 14:40 34.089617 -117.775856 182 1009ft 0kts
10-Sep-20 14:41 34.089617 -117.775856 182 1009ft 0kts
10-Sep-20 14:42 34.089617 -117.775856 182 1009ft 0kts
10-Sep-20 14:43 34.089617 -117.775856 182 1009ft 0kts
10-Sep-20 14:44 34.089617 -117.775856 182 1009ft 0kts
10-Sep-20 14:45 34.089617 -117.775856 182 1009ft 0kts
10-Sep-20 14:46 34.089617 -117.775856 182 1009ft 0kts
10-Sep-20 14:47 34.089542 -117.775703 50 1009ft 5kts
10-Sep-20 14:48 34.089704 -117.775674 1 1010ft 0kts
10-Sep-20 14:49 34.090257 -117.775360 65 1013ft 7kts
10-Sep-20 14:50 34.090535 -117.774643 1 1016ft 0kts
10-Sep-20 14:51 34.090696 -117.774644 359 1017ft 6kts
10-Sep-20 14:52 34.090994 -117.775045 270 1017ft 6kts
10-Sep-20 14:53 34.091412 -117.800956 252 1501ft 105kts
10-Sep-20 14:54 34.069737 -117.791966 152 2572ft 109kts
10-Sep-20 14:55 34.036086 -117.790199 182 3242ft 124kts
10-Sep-20 14:56 34.001463 -117.787066 175 3896ft 136kts
10-Sep-20 14:57 33.974546 -117.785177 177 3956ft 150kts
10-Sep-20 14:59 33.936099 -117.782657 177 3960ft 150kts
10-Sep-20 15:00 33.920333 -117.742138 92 3957ft 157kts
10-Sep-20 15:01 33.919320 -117.696588 92 3960ft 156kts
10-Sep-20 15:02 33.936436 -117.681637 311 3973ft 153kts
10-Sep-20 15:03 33.948989 -117.713103 292 3960ft 154kts
10-Sep-20 15:04 33.957042 -117.759312 212 3959ft 151kts
10-Sep-20 15:05 33.916819 -117.762431 181 3005ft 140kts
10-Sep-20 15:06 33.880370 -117.762943 181 2957ft 127kts
10-Sep-20 15:07 33.845653 -117.764592 202 2950ft 124kts
10-Sep-20 15:08 33.814099 -117.780614 208 2947ft 124kts
10-Sep-20 15:09 33.784098 -117.801801 207 2719ft 130kts
10-Sep-20 15:10 33.750051 -117.822605 207 1947ft 145kts
10-Sep-20 15:11 33.716392 -117.843393 209 991ft 123kts
10-Sep-20 15:12 33.696139 -117.855901 208 596ft 89kts
10-Sep-20 15:13 33.677451 -117.867745 208 58ft 51kts
10-Sep-20 15:14 33.675954 -117.869865 299 59ft 0kts
10-Sep-20 15:15 33.674339 -117.871961 130 57ft 0kts
10-Sep-20 15:15 33.674339 -117.871961 130 57ft 0kts
10-Sep-20 15:16 33.674339 -117.871961 130 57ft 0kts
10-Sep-20 15:18 33.674339 -117.871961 130 57ft 0kts
10-Sep-20 15:19 33.674339 -117.871961 130 57ft 0kts
10-Sep-20 15:19 33.674339 -117.871961 130 57ft 0kts
10-Sep-20 15:20 33.674339 -117.871961 130 57ft 0kts
10-Sep-20 15:22 33.674339 -117.871961 130 57ft 0kts
10-Sep-20 15:22 33.674339 -117.871961 130 57ft 0kts
10-Sep-20 15:23 33.674339 -117.871961 130 57ft 0kts
10-Sep-20 15:24 0.000408 0.013975 0 7ft 0kts
10-Sep-20 15:25 0.000408 0.013975 0 7ft 0kts
10-Sep-20 15:26 17.543306 -63.200100 355 1200ft 136kts

Navigation Log

Ident Type
Flight plan parsing failed, navigation log unavailable